MassPronMassClipsMassTube
MassClips MassTube
cuckold azwifedreddxxxemilywaltersASIAN CREAMPIE CUTIE – collegecreammpiecutie1naughtyposhwifeBella Jameel – bellajameelSiri Dahl – Manyvids

Blackcock black belst – blackedrawu

October 11, 2021

671



371 Files – 36.96 GB
Visit MassClips.cc & use your TezFiles Premium to download the best and most exclusive xxx updates. ONLY on MassClips.cc
Download Or Watch Online:


Full List of Videos in TheRelease

blackedrawu 2020.05.17 329627059 Trying to pull your knickers back up in f.mp4 46.93 MB
blackedrawu 2020.05.17 329654131 Bbw whore has fat ass on the end of my co.mp4 105.31 MB
blackedrawu 2020.05.17 329672272 Fucking this bbw whore in her asshole.mp4 26.77 MB
blackedrawu 2020.05.17 329677389 smooth white pussy demidevinex.mp4 28.18 MB
blackedrawu 2020.05.17 329712351 Subscribe to my https onlyfans.com 2394.mp4 3 MB
blackedrawu 2020.05.17 329894219 Filling your gf s pussy with black seed.mp4 2.61 MB
blackedrawu 2020.05.17 330140010 Look at your wifes asshole after my fist.mp4 43 MB
blackedrawu 2020.05.19 336729715 Heading to the shower wish someone could.mp4 19.45 MB
blackedrawu 2020.05.19 337198873 I need to oil myslef up…DM me if you wa.mp4 13.07 MB
blackedrawu 2020.05.19 338080108 Come see me release a load for you.mp4 13.1 MB
blackedrawu 2020.05.19 338571551 I wish someone elses hands could stroke m.mp4 5.06 MB
blackedrawu 2020.05.20 338861899 Your gf came over for a quick chat…I en.mp4 11.81 MB
blackedrawu 2020.05.20 340632746 Watch my new video I let my grow from.mp4 73.65 MB
blackedrawu 2020.05.20 341118916 Should I shave my cock in the shower. Let.mp4 7.32 MB
blackedrawu 2020.05.21 344017993 Your gf always gets so excited when you p.mp4 4.29 MB
blackedrawu 2020.05.21 344126920 I sent this vid to your gf and she said w.mp4 12.61 MB
blackedrawu 2020.05.21 344284202.mp4 3.87 MB
blackedrawu 2020.05.21 344513702 Be a good cuck and film me while I go dee.mp4 4.29 MB
blackedrawu 2020.05.21 344660119 Your wife loves admiring my cock before I.mp4 4.75 MB
blackedrawu 2020.05.22 347536879 Think im gonna shave it today like if you.mp4 7.32 MB
blackedrawu 2020.05.23 351044086.mp4 9.31 MB
blackedrawu 2020.05.23 352210495 I usually start off ok but quickyl have t.mp4 14.03 MB
blackedrawu 2020.05.23 352216457 like if you been doing your home w.mp4 14.03 MB
blackedrawu 2020.05.23 352222812 Got too hot a little better now…lets ke.mp4 27.35 MB
blackedrawu 2020.05.23 352639746 Your wife came over and said she was feel.mp4 13.01 MB
blackedrawu 2020.05.23 352688522 Your wife wanted me to fuck her asshole s.mp4 10.59 MB
blackedrawu 2020.05.23 352720906 I decided to see how her pussy felt befor.mp4 5.66 MB
blackedrawu 2020.05.24 353306033 Your gf ask me to pick her up from the gy.mp4 12.01 MB
blackedrawu 2020.05.24 354928461 Just a quick few tricep.dips before each.mp4 18.82 MB
blackedrawu 2020.05.24 356262087 Your wifes enjoying her miss luxury.mp4 10.45 MB
blackedrawu 2020.05.24 356342961 miss luxury6.mp4 3.29 MB
blackedrawu 2020.05.24 356427420 Your wife wasnt used to so I coached h.mp4 9.25 MB
blackedrawu 2020.05.25 356753603 At the end of a workout before I have a s.mp4 18.96 MB
blackedrawu 2020.05.25 357146403 Your wife asked if I would cum on her ass.mp4 14.65 MB
blackedrawu 2020.05.25 358476683 Dont wait up for your gf tonight she will.mp4 5.71 MB
blackedrawu 2020.05.25 358596608 Like if you want to see full scene. And m.mp4 11.93 MB
blackedrawu 2020.05.25 358879311 I hope youve been doing some home workout.mp4 68.47 MB
blackedrawu 2020.05.25 358993720 When I want a really intense workout I li.mp4 14.36 MB
blackedrawu 2020.05.26 362653349 Your gf said can I try and fit you all in.mp4 6.52 MB
blackedrawu 2020.05.26 362694947 I think your gf like the taste of my.mp4 4.56 MB
blackedrawu 2020.05.26 363286156 To all the sexy ladies out there.mp4 8.83 MB
blackedrawu 2020.05.26 363307240 like for full video miss misty.mp4 5.08 MB
blackedrawu 2020.05.26 363699763 Your gf soon started to relax and started.mp4 30.51 MB
blackedrawu 2020.05.26 363754156 Your gf can be bossy when she wants to be.mp4 6.34 MB
blackedrawu 2020.05.27 363874075 Your gf loves stroking my like for f.mp4 13.51 MB
blackedrawu 2020.05.27 364099075 Your gf asked if she could see how my.mp4 3.48 MB
blackedrawu 2020.05.27 365466934 I told you gf to show me where she wants.mp4 6.72 MB
blackedrawu 2020.05.27 365474133 Your gf said ive never eaten a guys ass c.mp4 5.15 MB
blackedrawu 2020.05.27 365857357 Your gf soon got used to my in her.mp4 11.65 MB
blackedrawu 2020.05.27 366862591 I told her to take it out slowly . Li.mp4 5.45 MB
blackedrawu 2020.05.27 367110566 Your gf likes stroking my like for full.mp4 7.71 MB
blackedrawu 2020.05.28 367558150 Your wife was desperate to suck the ou.mp4 16.76 MB
blackedrawu 2020.05.28 369859033 Your gf will be late tonight she wants to.mp4 18.98 MB
blackedrawu 2020.05.28 370201913 I was just looking at some nudes your gf.mp4 22.97 MB
blackedrawu 2020.05.29 372823385 Your gf wanted some on her tits so I.mp4 5.82 MB
blackedrawu 2020.05.29 372879091 Found an old vid from when you and your g.mp4 18.12 MB
blackedrawu 2020.05.29 373040105 Another old clip from the couple that I u.mp4 52.09 MB
blackedrawu 2020.05.29 373090407 It was a perfect relationship I loved fuc.mp4 15.05 MB
blackedrawu 2020.05.29 373289688 Getting your gfs ass ready for anal. Like.mp4 37.52 MB
blackedrawu 2020.05.29 374256956 This was an amazing experience strolling.mp4 10.75 MB
blackedrawu 2020.05.30 376028448 Morning.mp4 2.46 MB
blackedrawu 2020.05.30 377629828 Your gf asked me to come round and let he.mp4 68.57 MB
blackedrawu 2020.05.30 377710043 Your gf was determined to take more of my.mp4 12.52 MB
blackedrawu 2020.05.31 379212141 Take your time he wont be back for hours.mp4 16.22 MB
blackedrawu 2020.05.31 379632932 like to see me cum in her mouth.mp4 17.49 MB
blackedrawu 2020.05.31 379941743 Catch it in your mouth like if you l.mp4 14.72 MB
blackedrawu 2020.06.01 382669387 Your gf said daddy do you like my pussy c.mp4 5.77 MB
blackedrawu 2020.06.01 383725584 I was looking at some nudes your gf sent.mp4 9.88 MB
blackedrawu 2020.06.02 386753593 Your gf told me she likes my poppy.mp4 20.01 MB
blackedrawu 2020.06.02 386803861 I love your gf tiny little mouth on my.mp4 4.64 MB
blackedrawu 2020.06.02 387520572 Your gf said daddy ive never sat on a lon.mp4 34.72 MB
blackedrawu 2020.06.03 389176365 Your gf has such a tight little pussy my.mp4 10.75 MB
blackedrawu 2020.06.03 389221544 Your gfs enjoying her shell be back la.mp4 21.86 MB
blackedrawu 2020.06.03 389249335 Your gf likes it when I stick my tongue i.mp4 8.44 MB
blackedrawu 2020.06.03 389264231 Come here and put my in your mouth now.mp4 13.35 MB
blackedrawu 2020.06.04 394202190 Your wife has the most amazing pussy lips.mp4 24.25 MB
blackedrawu 2020.06.04 394435477 Im going to start visiting your wife more.mp4 22.91 MB
blackedrawu 2020.06.05 396003398 Your wife loves how I eat her pussy.mp4 3.64 MB
blackedrawu 2020.06.06 401294391 Make sure you get my balls in your mouth.mp4 10.71 MB
blackedrawu 2020.06.07 404334926 I love suprising your wife when she leave.mp4 3.04 MB
blackedrawu 2020.06.09 408879841 Lick it.mp4 5.49 MB
blackedrawu 2020.06.09 411578456 Such a polite whore your wife is DM fo.mp4 17.36 MB
blackedrawu 2020.06.11 418148224 Your gfs mouth felt so good on my d.mp4 34.46 MB
blackedrawu 2020.06.11 418218635 Your gf wanted to hold the camera and wat.mp4 9.97 MB
blackedrawu 2020.06.15 431039437 Stroke it poppy savage.mp4 38.85 MB
blackedrawu 2020.06.15 431233362 Your gf is an obedient little slut.mp4 6.12 MB
blackedrawu 2020.06.15 431479503 Love squeezing into your gfs tight pussy.mp4 3.12 MB
blackedrawu 2020.06.15 431486347 poppy savage.mp4 15.66 MB
blackedrawu 2020.06.15 432206863 I think your gf will be late tonight.mp4 12.43 MB
blackedrawu 2020.06.17 437462398 Love over your gf s poppy savage.mp4 20.56 MB
blackedrawu 2020.06.17 437471925 Your gf wasnt safisfied with 1 load of.mp4 32.76 MB
blackedrawu 2020.06.20 450520597 I love sticking my in your gfs tight.mp4 35.12 MB
blackedrawu 2020.06.21 452089538 Fresh out the shower and your wifes at th.mp4 2.48 MB
blackedrawu 2020.06.22 456222003 Your wife said she loves how my body alwa.mp4 16.47 MB
blackedrawu 2020.06.22 456465365 Your wife just popped to the bathroom yo.mp4 6.17 MB
blackedrawu 2020.06.24 462571114 Such a sexy body poppy savage.mp4 20.15 MB
blackedrawu 2020.06.24 462573733 You hold the camera like a good girl and.mp4 25.67 MB
blackedrawu 2020.06.24 463616858 Tip 8.99 for full vid of this sexy snow b.mp4 31.87 MB
blackedrawu 2020.06.24 463662318 Dm to buy full vid and see what we got up.mp4 63.16 MB
blackedrawu 2020.06.26 470490377 Tip 8 to see full vid of this tight litt.mp4 23.41 MB
blackedrawu 2020.06.28 477271722 Tip to see full vid of this sexy snowbunn.mp4 61.25 MB
blackedrawu 2020.06.28 477452163 Tight bouncing on my made me tri.mp4 38.64 MB
blackedrawu 2020.06.28 477822014 Things got nasty just how I like it…I l.mp4 31.71 MB
blackedrawu 2020.06.29 481016240 My got so excited it twice in this.mp4 80.19 MB
blackedrawu 2020.06.30 484713953 I love an obedient little slut doing as d.mp4 96.25 MB
blackedrawu 2020.06.30 484796852 Like and tip if youd like to see more.mp4 67.54 MB
blackedrawu 2020.07.01 487503290 You Indian wife said shed nevwr tried.mp4 81.01 MB
blackedrawu 2020.07.01 488396970 Your gf loves sticking her in my ass s.mp4 32.96 MB
blackedrawu 2020.07.01 488509664 My sexy litte slut doing as daddy wants D.mp4 144.3 MB
blackedrawu 2020.07.02 491575884 Time for cock.mp4 126.7 KB
blackedrawu 2020.07.02 491980263 Sliding it in slowly so she feels me fill.mp4 51.44 MB
blackedrawu 2020.07.02 492069040 Teasing the pussy before feeding it.mp4 170.54 MB
blackedrawu 2020.07.05 502440714 The weekend was eventful…more to cum.mp4 49.81 MB
blackedrawu 2020.07.05 502461152 a free full length vid as a thank.mp4 267.87 MB
blackedrawu 2020.07.05 502495748 Look at those eyes poppy savage.mp4 110.18 MB
blackedrawu 2020.07.06 505743058 The view the cuck sees poppy savage.mp4 18.36 MB
blackedrawu 2020.07.06 505748236 Lick my japs eye like a good little slut.mp4 13.19 MB
blackedrawu 2020.07.06 505768421 First time anal daddy will go slowly.mp4 97.39 MB
blackedrawu 2020.07.06 505769301 Did you like daddies in your p.mp4 15.46 MB
blackedrawu 2020.07.07 509518261 Turn around and sit on daddys cock.mp4 23 MB
blackedrawu 2020.07.09 516321939 Slutty anal whore sophieaslut.mp4 67.39 MB
blackedrawu 2020.07.09 516433168 Filthy cock whore hungry for it For full.mp4 144.9 MB
blackedrawu 2020.07.09 516598915 Making your wife be a dirty bitch just ho.mp4 218.2 MB
blackedrawu 2020.07.12 526016155 Walking in the woods with my little bunny.mp4 15.45 MB
blackedrawu 2020.07.12 526876459 My little bunny found some wood in the wo.mp4 112.51 MB
blackedrawu 2020.07.12 527795046 Make sure rebill is on to come pop.mp4 55.4 MB
blackedrawu 2020.07.14 534402267 Filthy cock whore sophieaslut.mp4 115.89 MB
blackedrawu 2020.07.15 538084613 Having fun with my bunny in the woods.mp4 199.39 MB
blackedrawu 2020.07.15 538162988 My baby is learning to be a bad girl for.mp4 142.53 MB
blackedrawu 2020.07.19 558622384 Giving the maid a tip in the shower.mp4 108.1 MB
blackedrawu 2020.07.19 558690750 Free full length vid of my little bunny r.mp4 277.43 MB
blackedrawu 2020.07.20 562904676 DM for full length scene. She gets really.mp4 22.55 MB
blackedrawu 2020.07.22 573669768 poppy savage.mp4 30.18 MB
blackedrawu 2020.07.22 573711258 Riding like a good little slut po.mp4 37.21 MB
blackedrawu 2020.07.22 573794368 Some public fun with my bunny…listen on.mp4 126.07 MB
blackedrawu 2020.07.23 577923782 When the waitress asks for a tip I pay.mp4 15.58 MB
blackedrawu 2020.07.23 579516210 My cock when your wife messages.mp4 16.9 MB
blackedrawu 2020.07.25 586698606 poppy savage.mp4 110.12 MB
blackedrawu 2020.07.25 588395766 over her twice poppy savage.mp4 78.6 MB
blackedrawu 2020.07.25 588518420 Things got freaky last night with my litt.mp4 3.97 MB
blackedrawu 2020.07.26 593603702 For full vid DM I love nasty snowb.mp4 278.33 MB
blackedrawu 2020.07.27 596657373 Having fun tipping the maid…literally.mp4 123.74 MB
blackedrawu 2020.07.29 611952895 Bouncing on that dick for full vid D.mp4 8.06 MB
blackedrawu 2020.08.01 627503534 Some early morning.mp4 154.48 MB
blackedrawu 2020.08.07 665251879 Fucking your wife while your at work.mp4 20.8 MB
blackedrawu 2020.08.08 667987741 poppy savage.mp4 23.33 MB
blackedrawu 2020.08.23 755475571 for full scene DM adreena winters.mp4 37.34 MB
blackedrawu 2020.08.23 755500380 poppy savage.mp4 23.65 MB
blackedrawu 2020.08.23 755599286 Did you walk passed us poppy savage.mp4 187.91 MB
blackedrawu 2020.08.28 788252779 Your wifes a filthy whore sophieaslut.mp4 13.72 MB
blackedrawu 2020.08.29 793646753 Your wife doesnt waste a drop filthy.mp4 28.5 MB
blackedrawu 2020.08.29 793863018 Letting your wife taste my…I think she.mp4 209.04 MB
blackedrawu 2020.08.29 795730900 Chocolate tasting poppy savage.mp4 211.64 MB
blackedrawu 2020.08.29 796076810 The trainers stay on when we fuck.mp4 25.83 MB
blackedrawu 2020.08.30 802166089 poppy savage.mp4 30.94 MB
blackedrawu 2020.09.06 844404744 For full scene DM poppy savage.mp4 41.81 MB
blackedrawu 2020.09.07 852909785 Dm for full vid poppy savage a.mp4 65.54 MB
blackedrawu 2020.09.07 852977603 Dm for full scene adreena winte.mp4 62.34 MB
blackedrawu 2020.09.08 858368263 Love how her tight little pussy grips my.mp4 218.21 MB
blackedrawu 2020.09.08 858480833 Fill her pussy with cum and leave her leg.mp4 193.35 MB
blackedrawu 2020.09.10 868673046 Your gf asked if she could try my in t.mp4 92.13 MB
blackedrawu 2020.09.13 888481102 Wife fucked up the ass on her wedding day.mp4 43.11 MB
blackedrawu 2020.09.13 888502163 Your gf ordered some on her new app im.mp4 11.25 MB
blackedrawu 2020.09.21 936978308 Making the pussy cream DM for fu.mp4 41.92 MB
blackedrawu 2020.09.22 938202462 Your wife loved the present I gave her on.mp4 22.42 MB
blackedrawu 2020.09.23 949037488 Your gf wanted to play with my.mp4 20.47 MB
blackedrawu 2020.10.05 1023201327 Fucking your wife up her ass in the show.mp4 42.32 MB
blackedrawu 2020.10.09 1047260498 Your wife is a filthy whore good girl.mp4 47.34 MB
blackedrawu 2020.10.09 1047308898 How could I turn down the invitation.mp4 45.8 MB
blackedrawu 2020.10.09 1047343203 Your gf loved sticking her tongue up my.mp4 8.04 MB
blackedrawu 2020.10.09 1047703502 Like if you want to see stuff my cock in.mp4 14.86 MB
blackedrawu 2020.10.10 1051293514 Sloppy head from your slutty wife.mp4 80.84 MB
blackedrawu 2020.10.10 1051802676 Your wife wanted a quickie while you wer.mp4 231.6 MB
blackedrawu 2020.10.20 1109405922 demidevinex full.scenes DM.mp4 4.95 MB
blackedrawu 2020.10.24 1134362041 Your girls ass is delicious demi.mp4 5.07 MB
blackedrawu 2020.10.24 1134756393 Providing a seat for your girl demidevi.mp4 11.32 MB
blackedrawu 2020.10.29 1162448649 Your gf wanted to try BBC before you got.mp4 120.66 MB
blackedrawu 2020.10.29 1162451562 Love watching your girls ass bounce on m.mp4 97.85 KB
blackedrawu 2020.10.30 1168440400 Wanna see what happened next ad.mp4 14.76 MB
blackedrawu 2020.10.31 1175011227 Trying yo gobble me up poppy savag.mp4 300.44 KB
blackedrawu 2020.11.02 1181019558 Fucking your wife and making her squirt.mp4 84.46 MB
blackedrawu 2020.11.02 1181047937 Your wife said she wants big cock pb.mp4 409.51 KB
blackedrawu 2020.11.02 1181060780 Your wife opening her asshole for my coc.mp4 167.69 KB
blackedrawu 2020.11.02 1186605441 I love an asslicking slut sophieaslu.mp4 312.14 MB
blackedrawu 2020.11.03 1190476460 I love sticking my cock in your wifes mo.mp4 145.68 MB
blackedrawu 2020.11.03 1190652015 I convinced your wife to suck my cock….mp4 263.32 MB
blackedrawu 2020.11.04 1193119726 Your wife just couldnt keep my cock out.mp4 136.92 MB
blackedrawu 2020.11.05 1203353963 Hard at work behind your girl de.mp4 24.28 MB
blackedrawu 2020.11.05 1204230670 She loves a mouthful of chocolate demid.mp4 113.43 MB
blackedrawu 2020.11.05 1204455341 v demidevinex.mp4 216.59 KB
blackedrawu 2020.11.06 1208913097 Making your gf learn the trombone po.mp4 381.91 KB
blackedrawu 2020.11.07 1213815579 car content on the way demidevinex.mp4 76.85 KB
blackedrawu 2020.11.07 1215786126 You wanna see me doggy your gf.mp4 307.84 KB
blackedrawu 2020.11.07 1215832596 New scenes being edited as we speak n.mp4 343.71 KB
blackedrawu 2020.11.07 1215849885 She know how to handle …editing scen.mp4 316.94 KB
blackedrawu 2020.11.08 1216707247 Making your wife swallow my cock…shell.mp4 206.34 KB
blackedrawu 2020.11.08 1216715520 Such a good cock whore your wife is…co.mp4 351.81 KB
blackedrawu 2020.11.08 1216793664 Stuffing her slutty mouth poppy savage.mp4 514.36 KB
blackedrawu 2020.11.08 1216805091 Keep those legs spread whore pbb.mp4 311.13 KB
blackedrawu 2020.11.08 1221071673 poppy savage.mp4 374.96 KB
blackedrawu 2020.11.08 1221075829 She loves how my asshole tastes po.mp4 364.23 KB
blackedrawu 2020.11.08 1221081549 She suck the cream out my ass if yo.mp4 390.46 KB
blackedrawu 2020.11.09 1224982022 Your wife prepping her asshole for my vi.mp4 220.5 MB
blackedrawu 2020.11.09 1225876228 Big boobed housewife pays the plumber in.mp4 295.93 MB
blackedrawu 2020.11.09 1226221447 Happy with my cock in her face.mp4 184.35 KB
blackedrawu 2020.11.09 1226266965 Attention to detail poppy savage.mp4 315.87 KB
blackedrawu 2020.11.09 1227072858 Doggy with pawg demidevineox.mp4 207.29 MB
blackedrawu 2020.11.10 1231255140 I told your girl to pop over and pop my.mp4 257.89 MB
blackedrawu 2020.11.10 1232677629 demidevineox pussy and ass taste so nic.mp4 126.64 MB
blackedrawu 2020.11.11 1237663463 Your girl wanted some cream in her po.mp4 341.74 MB
blackedrawu 2020.11.12 1243697147 How true kings wake up poppy savage.mp4 116.12 KB
blackedrawu 2020.11.12 1243707007 adreena winters.mp4 441.57 KB
blackedrawu 2020.11.12 1243710745 adreena winters.mp4 429 KB
blackedrawu 2020.11.12 1243712287 Facial for your wife she loves it.mp4 435.51 KB
blackedrawu 2020.11.12 1243918711 Preparing my plate poppy savage.mp4 247.13 KB
blackedrawu 2020.11.13 1249660025 Big tits superslut loves chok ng on cock.mp4 353.88 KB
blackedrawu 2020.11.13 1249732676 She tasted it and loved how I taste.mp4 293.35 KB
blackedrawu 2020.11.13 1249743918 Soon she was ready for my cock in her ho.mp4 66.65 KB
blackedrawu 2020.11.13 1249874517 The P.T classes are going well with your.mp4 471.64 KB
blackedrawu 2020.11.13 1252373134 Eating in the kitchen while you were.mp4 186.94 KB
blackedrawu 2020.11.14 1258364658 Preview of car fun with demidevinex.mp4 128.87 MB
blackedrawu 2020.11.17 1273212754 Letting your gf ride me while I catch up.mp4 110.62 MB
blackedrawu 2020.11.17 1274106493 The night your big butt girl came over.mp4 166.86 MB
blackedrawu 2020.11.21 1301561725 Your wife loved sucking my uncut cock on.mp4 798.38 KB
blackedrawu 2020.11.21 1307178900 Fucking your wife in her Valentinos.mp4 189.57 MB
blackedrawu 2020.11.22 1307375788 Your gf loved stroking my long dick.mp4 7.73 MB
blackedrawu 2020.11.22 1307391140 send your gf round more often de.mp4 32.96 MB
blackedrawu 2020.11.22 1309699750 She love rubbing my into her pussy vi.mp4 615.08 KB
blackedrawu 2020.11.23 1313199221 Your gf stopped by and said she just wan.mp4 133.19 MB
blackedrawu 2020.11.24 1322273425 Obedience training poppy savage.mp4 541.65 KB
blackedrawu 2020.11.26 1332698748 Coming soon kitchen fuck with pawg demi.mp4 772.77 KB
blackedrawu 2020.11.27 1340561464 Car fun with demidevineox.mp4 353.93 MB
blackedrawu 2020.11.28 1343338953 She got that bounce demidevine.mp4 114.75 MB
blackedrawu 2020.12.01 1362777537 Playing with your wifes massive pussy li.mp4 324.12 MB
blackedrawu 2020.12.01 1362827281 demidevineox on the dick.mp4 242.92 KB
blackedrawu 2020.12.04 1381423911 demidevineox showing the mess I left on.mp4 8.98 MB
blackedrawu 2020.12.04 1381477428 demidevineox milking.mp4 247.85 KB
blackedrawu 2020.12.04 1384225371 demidevineox facial.mp4 507.46 KB
blackedrawu 2020.12.11 1425816546 I told her no hands then I stuck my tong.mp4 450.97 KB
blackedrawu 2020.12.11 1425833940 Concentration on my dick maddisonb.mp4 637.34 KB
blackedrawu 2020.12.12 1431763521 I told her spread em maddisonblack.mp4 317.51 KB
blackedrawu 2020.12.12 1431785522 Slurping on my cock your girl was.mp4 182.4 MB
blackedrawu 2020.12.14 1449635195 Showing me that sexy ass maddisonblack.mp4 18.05 MB
blackedrawu 2020.12.15 1454262372 Spread it and eat it ubmybaby.mp4 738.05 KB
blackedrawu 2020.12.15 1454273321 Your girl playing with my asshole while.mp4 632.16 KB
blackedrawu 2020.12.15 1455049304 sophieaslut.mp4 497.27 KB
blackedrawu 2020.12.15 1455103876 Tight anal with sexy poppy savage.mp4 229.85 KB
blackedrawu 2020.12.30 1552053314 Sloppy deepthroat maddisonblack.mp4 62.97 MB
blackedrawu 2020.12.31 1552719772 Just sent your girl a vid.mp4 4.79 MB
blackedrawu 2021-07-10-2159446006.mp4 67.26 MB
blackedrawu 2021-07-10-2159619561.mp4 186.26 MB
blackedrawu 2021-07-11-2159655501.mp4 984.49 MB
blackedrawu 2021-07-11-2159895839.mp4 121.36 MB
blackedrawu 2021-07-12-2161318812.mp4 183.54 MB
blackedrawu 2021-07-13-2162345944.mp4 62.57 MB
blackedrawu 2021-07-17-2165701343.mp4 566.28 MB
blackedrawu 2021-07-18-2166591912.mp4 549.35 KB
blackedrawu 2021-07-18-2166594367.mp4 294.44 KB
blackedrawu 2021-07-22-2170945539.mp4 10.85 MB
blackedrawu 2021-07-23-2171916810.mp4 162.76 MB
blackedrawu 2021-07-24-2172358732.mp4 886.52 KB
blackedrawu 2021-07-30-2178706128.mp4 283.95 MB
blackedrawu 2021-07-31-2179124513.mp4 164.19 MB
blackedrawu 2021-08-01-2180019647.mp4 210.99 MB
blackedrawu 2021-08-01-2180021745.mp4 79.3 MB
blackedrawu 2021-08-01-2180422164.mp4 112.87 MB
blackedrawu 2021-08-02-2181482724.mp4 1.15 GB
blackedrawu 2021-08-04-2183268595.mp4 129.52 MB
blackedrawu 2021-08-04-2183285704.mp4 269.63 MB
blackedrawu 2021-08-05-2183613325.mp4 294.29 MB
blackedrawu 2021.01.06 2002419940 A bit of pipe cleaning sophiea.mp4 474.93 MB
blackedrawu 2021.01.06 2002752113 Told your wife come sit on my long cock..mp4 191.99 MB
blackedrawu 2021.01.07 2003336593 maddisonblack showing my cock some love.mp4 224.74 MB
blackedrawu 2021.01.08 2004258897 maddisonblack big ass on my face.mp4 114.76 MB
blackedrawu 2021.01.10 2005495617 I love a slutty tongue deep in my asshol.mp4 166.61 MB
blackedrawu 2021.01.11 2006606982 Editing Doggy in kitchen uploading soon..mp4 48.69 MB
blackedrawu 2021.01.12 2007132770 Floppy dick waiting for your girl to com.mp4 66.06 MB
blackedrawu 2021.02.21 2037359325 Upcoming ass eating vid poppy savage.mp4 370.07 KB
blackedrawu 2021.02.21 2037359562 Upload soon poppy savage.mp4 284.78 KB
blackedrawu 2021.02.28 2042989257 Full vid is nearly 7 mins of pure deep t.mp4 169.43 MB
blackedrawu 2021.03.01 2043999505 Took your bitch for a walk in the woods.mp4 199.3 MB
blackedrawu 2021.03.01 2044033907 Some more sloppy head and deep ass licki.mp4 347.96 MB
blackedrawu 2021.03.01 2044034469 Sbooting with this again soon stay p.mp4 491.81 KB
blackedrawu 2021.03.07 2048781338 Your girl stayed over last night when sh.mp4 114.67 MB
blackedrawu 2021.03.13 2053236316 Big ass Indian housewife taking my long.mp4 80.9 MB
blackedrawu 2021.03.13 2053240855 Making this slut eat my black asshole.mp4 224.12 MB
blackedrawu 2021.03.14 2054635517 Bbw slut eats my black shithole full.mp4 5.46 MB
blackedrawu 2021.03.14 2054642342 Made my ass into a sunday fu king.mp4 278.41 MB
blackedrawu 2021.03.14 2054644320 I love eating tight fresh bunny pussy d.mp4 176.19 MB
blackedrawu 2021.03.14 2054705787 Walking in on your wife.mp4 349.65 KB
blackedrawu 2021.03.14 2054706221 Open your mouth cuck.mp4 391.84 KB
blackedrawu 2021.03.14 2054710080 Bbw slut sucking my bbc u63592371.mp4 90.76 MB
blackedrawu 2021.03.16 2056499964 Made this bitch stick her tongue up my a.mp4 460.61 MB
blackedrawu 2021.03.19 2059174225 Lightskin chick fucked doggy and swallow.mp4 577.44 MB
blackedrawu 2021.03.19 2059175342.mp4 14.79 MB
blackedrawu 2021.03.20 2059568335 Outdoor fucking in full view of guests w.mp4 126.17 MB
blackedrawu 2021.03.20 2060132229 Some riding from tight pussy whore.mp4 606.77 MB
blackedrawu 2021.03.21 2060982472 Naughty housewife gets her tongue deep i.mp4 443.51 KB
blackedrawu 2021.03.22 2061920755 Love getting my ass ate by slutty housew.mp4 208.69 MB
blackedrawu 2021.03.25 2064797131 Suprised his gf with a bbc for her birth.mp4 204.04 MB
blackedrawu 2021.03.26 2065586833 Slutty housewifes birthday suprise pt2 w.mp4 253.77 MB
blackedrawu 2021.03.28 2067372302 Light skin hoe sticking her tongue up my.mp4 142.35 MB
blackedrawu 2021.03.28 2067446451 Getting this hoe to stick her tongue up.mp4 267.89 MB
blackedrawu 2021.04.01 2071126311 Sexy milf sucking my cock and licking my.mp4 304.11 MB
blackedrawu 2021.04.01 2071188390 Hot milf squirting on my cock then licki.mp4 356.51 MB
blackedrawu 2021.04.02 2071582540 Fucked your gf in the car park before dr.mp4 90.73 MB
blackedrawu 2021.04.02 2071663078 Part 1 of hot scene with adreenawinters.mp4 620.09 MB
blackedrawu 2021.04.04 2073652464 Slut sticking her tongue in my ass while.mp4 44.43 MB
blackedrawu 2021.04.04 2073659329 This slut loves eating my black hole he.mp4 268.89 MB
blackedrawu 2021.04.10 2079008035 Cock whore didnt want to wait til we got.mp4 112.53 MB
blackedrawu 2021.04.10 2079019660 She kept sucking then wanted me to fuck.mp4 199.31 MB
blackedrawu 2021.04.11 2079870194 Sexy Hungarian hottie annablacked eatin.mp4 322.56 KB
blackedrawu 2021.04.11 2080176217 Sexy Milf annablacked sticking her tong.mp4 727 KB
blackedrawu 2021.04.11 2080177864 Playing with annablacked asshole Full.mp4 214.26 KB
blackedrawu 2021.04.11 2080179139 She plays with my asshole vid coming soo.mp4 301.44 KB
blackedrawu 2021.04.11 2080271524 Pt 1 of annablacked serving my black co.mp4 229.61 MB
blackedrawu 2021.04.13 2081686791 Cheating slut took two cocks while hubby.mp4 506.65 KB
blackedrawu 2021.04.13 2081788722 Making slutty bimbo take my cock in her.mp4 529.86 KB
blackedrawu 2021.04.14 2083163879 Things got heated in the car with demid.mp4 692.23 MB
blackedrawu 2021.04.14 2083173380 I love nothing more than a slut tongue f.mp4 278.4 MB
blackedrawu 2021.04.15 2083969841 Lightskin hoe bouncing on my cock then.mp4 554.7 MB
blackedrawu 2021.04.15 2084026472 New upload coming of little English whor.mp4 275.18 KB
blackedrawu 2021.04.15 2084026474 New upload coming of little English whor.mp4 271.05 KB
blackedrawu 2021.04.15 2084162790 Little slut sucks cock and gives amazing.mp4 706.96 MB
blackedrawu 2021.04.18 2086567277 Part 1 with annablacked part 2 coming s.mp4 663.69 MB
blackedrawu 2021.04.19 2087189099 Giving deep strokes to hot annablacked.mp4 37.76 MB
blackedrawu 2021.04.22 2090647528 Some bts with maddisonblack full scene.mp4 107.23 MB
blackedrawu 2021.04.24 2092022783 Delivered some food and maddisonblack a.mp4 785.69 MB
blackedrawu 2021.04.25 2092887143 Hotwife drinks me and plays with my assh.mp4 977.65 KB
blackedrawu 2021.04.25 2092962874 Naughty massage therapy new vid being ed.mp4 10.81 MB
blackedrawu 2021.04.26 2093859134 annablacked riding my cock while hubby.mp4 136.73 MB
blackedrawu 2021.05.02 2098641394 Hot new content coming with alicerose20.mp4 457.21 KB
blackedrawu 2021.05.03 2099492517 Pretty eyes alicerose2020 is naughty li.mp4 396.9 KB
blackedrawu 2021.05.04 2100439040 Pt1 with alicerose2020 being naughty wi.mp4 3.97 MB
blackedrawu 2021.05.04 2100445022 Massage scene is with annablacked.mp4 229.55 KB
blackedrawu 2021.05.04 2101037572 My massage quickly turned naughty when m.mp4 268.27 MB
blackedrawu 2021.05.04 2101045704 alicerose2020 sticks her sexy tongue in.mp4 171.72 MB
blackedrawu 2021.05.06 2102605072 Sropped by to pick up the jacket I left.mp4 460.01 MB
blackedrawu 2021.05.06 2102758962 Pt2 gets extra nasty Her slutty tongue.mp4 5.6 MB
blackedrawu 2021.05.10 2105649328 annablacked was taking a nap so I woke.mp4 17.72 MB
blackedrawu 2021.05.16 2110997720 Getting filthy with posh slut hannahbla.mp4 906.27 MB
blackedrawu 2021.05.16 2111002141 Pt 1 Little slut slurps on my cock befor.mp4 189.52 MB
blackedrawu 2021.05.16 2111007336 Sexy milf slut annablacked digging deep.mp4 150.69 MB
blackedrawu 2021.05.22 2116233334 It went down with hannahblakeuk gtha.mp4 510.35 MB
blackedrawu 2021.05.23 2117112853 I love how her tongue feels up my asshol.mp4 24.8 MB
blackedrawu 2021.06.06 2129246495 Chubby whore wanted to fuck I said eat m.mp4 252.85 MB
blackedrawu 2021.06.06 2129295239 Part 1 with naughty little slut lanaros.mp4 936.97 MB
blackedrawu 2021.06.07 2130276929 Was having a drink with annablacked and.mp4 73.42 MB
blackedrawu 2021.06.07 2130299447 Pt.2 of the slutty neighbour sampling my.mp4 261.19 MB
blackedrawu 2021.06.08 2131081784 Pt.2 of my playtime with pretty little s.mp4 261.08 MB
blackedrawu 2021.06.08 2131104837 Eating her pussy and tongue fucking her.mp4 240.58 MB
blackedrawu 2021.06.08 2131120140 beehotter being a true whore and worshi.mp4 204.79 MB
blackedrawu 2021.06.08 2131139120 annablacked riding my cock while her fr.mp4 333.04 MB
blackedrawu 2021.06.10 2132934993 miztress being a dirty slut with me com.mp4 238.9 KB
blackedrawu 2021.06.11 2133542728 Naughty little slut miztress teasing my.mp4 66.2 MB
blackedrawu 2021.06.12 2134574791 Pt 1 miztress.mp4 117.45 MB
blackedrawu 2021.06.13 2135200711 Saw my neigbour relaxing in the garden a.mp4 1.22 MB
blackedrawu 2021.06.15 2136896402 miztress warming my cock up ready to fu.mp4 62.56 MB
blackedrawu 2021.06.19 2140408214 Getting head at height from sexy sofial.mp4 58.31 MB
blackedrawu 2021.06.19 2140525861 sofialilyxoxo showing some ass eatin.mp4 159.63 MB
blackedrawu 2021.06.20 2141254179 Some oily cock play from annablacked.mp4 128.13 MB
blackedrawu 2021.06.22 2142580836 Some doggy on sofialilyxoxo peachy bum.mp4 68.54 MB
blackedrawu 2021.06.22 2143049099 Some anal with sofialilyxoxo peachy bum.mp4 348.38 MB
blackedrawu 2021.07.04 2153186216 I went round to knock for my mate but he.mp4 1.09 GB
blackedrawu 2021.07.04 2153754424 new rimming scene with sofialilyxoxo.mp4 61.8 MB
blackedrawu 2021.07.07 2156591163 Some head from blonde slut lanarose2020.mp4 268.86 MB
blackedrawu 2021.07.07 2156795470 The anal with Sofialilyxoxo scene is.mp4 461.66 KB
blackedrawu 2021.07.07 2156800727 pbbimbo her wedding day treat was a BBC.mp4 133.84 MB
blackedrawu 2021.07.08 2157801878 demidevinex.mp4 40.53 MB
blackedrawu 2021.07.09 2158442827 pbbimbo slurping on my cock.mp4 327.49 MB
blackedrawu 2021.07.09 2158453242 pbbimbo throws her wedding dress up and.mp4 171.92 MB